createdAt,value
2022-11-05T00:09:38.204Z,11.63
2022-11-05T00:14:58.599Z,11.90
2022-11-05T00:20:00.742Z,12.02
2022-11-05T00:25:14.564Z,12.65
2022-11-05T00:30:24.940Z,11.45
2022-11-05T00:35:26.915Z,13.30
2022-11-05T00:40:28.834Z,12.73
2022-11-05T00:45:31.140Z,13.93
2022-11-05T00:50:33.674Z,13.32
2022-11-05T00:55:40.297Z,12.68
2022-11-05T01:00:44.785Z,13.13
2022-11-05T01:05:49.327Z,13.45
2022-11-05T01:10:56.777Z,12.73
2022-11-05T01:16:06.056Z,13.40
2022-11-05T01:21:13.317Z,12.40
2022-11-05T01:26:15.439Z,11.60
2022-11-05T01:31:17.265Z,10.68
2022-11-05T01:36:19.118Z,11.20
2022-11-05T01:41:20.922Z,12.40
2022-11-05T01:46:46.122Z,12.68
2022-11-05T01:51:49.002Z,10.95
2022-11-05T01:56:56.127Z,9.65
2022-11-05T02:01:58.497Z,10.52
2022-11-05T02:07:00.546Z,10.00
2022-11-05T02:12:02.884Z,9.13
2022-11-05T02:17:10.545Z,9.75
2022-11-05T02:22:58.619Z,10.27
2022-11-05T02:28:03.281Z,10.13
2022-11-05T02:33:27.501Z,9.88
2022-11-05T02:38:45.766Z,9.75
2022-11-05T02:44:22.339Z,9.40
2022-11-05T02:49:32.398Z,9.95
2022-11-05T02:54:41.423Z,8.30
2022-11-05T02:59:43.222Z,7.72
2022-11-05T03:04:45.136Z,6.78
2022-11-05T03:09:46.975Z,8.25
2022-11-05T03:15:31.904Z,8.57
2022-11-05T03:21:11.443Z,8.02
2022-11-05T03:26:23.644Z,8.90
2022-11-05T03:31:28.318Z,9.48
2022-11-05T03:36:41.343Z,10.40
2022-11-05T03:41:47.973Z,10.43
2022-11-05T03:46:52.231Z,11.75
2022-11-05T03:52:18.518Z,11.88
2022-11-05T03:57:29.662Z,12.32
2022-11-05T04:02:31.860Z,13.23
2022-11-05T04:07:52.422Z,15.57
2022-11-05T04:13:13.248Z,14.98
2022-11-05T04:18:15.185Z,14.30
2022-11-05T04:23:35.704Z,15.95
2022-11-05T04:28:55.975Z,15.40
2022-11-05T04:33:57.769Z,15.15
2022-11-05T04:38:59.586Z,15.07
2022-11-05T04:44:01.434Z,15.10
2022-11-05T04:49:03.247Z,15.30
2022-11-05T04:54:05.095Z,15.02
2022-11-05T04:59:06.876Z,14.65
2022-11-05T05:04:08.711Z,15.50
2022-11-05T05:09:10.516Z,16.40
2022-11-05T05:14:12.655Z,15.13
2022-11-05T05:19:14.584Z,15.73
2022-11-05T05:24:20.228Z,14.75
2022-11-05T05:29:22.016Z,14.98
2022-11-05T05:34:23.821Z,14.90
2022-11-05T05:39:27.035Z,14.05
2022-11-05T05:44:28.844Z,13.98
2022-11-05T05:49:30.697Z,14.82
2022-11-05T05:54:35.978Z,14.48
2022-11-05T05:59:40.162Z,13.98
2022-11-05T06:04:41.951Z,14.15
2022-11-05T06:09:43.745Z,14.70
2022-11-05T06:14:45.699Z,14.85
2022-11-05T06:19:48.015Z,13.90
2022-11-05T06:24:49.795Z,14.90
2022-11-05T06:29:51.601Z,14.25
2022-11-05T06:34:53.558Z,15.55
2022-11-05T06:39:57.243Z,15.25
2022-11-05T06:44:59.092Z,15.60
2022-11-05T06:50:00.951Z,15.77
2022-11-05T06:55:02.803Z,16.55
2022-11-05T07:00:08.065Z,17.20
2022-11-05T07:05:12.943Z,15.63
2022-11-05T07:10:17.515Z,15.10
2022-11-05T07:15:19.320Z,14.90
2022-11-05T07:20:21.122Z,15.20
2022-11-05T07:25:22.911Z,14.18
2022-11-05T07:30:25.208Z,14.18
2022-11-05T07:35:27.320Z,14.43
2022-11-05T07:40:30.435Z,13.43
2022-11-05T07:45:32.334Z,12.13
2022-11-05T07:50:36.626Z,12.25
2022-11-05T07:55:40.543Z,15.07
2022-11-05T08:00:42.599Z,13.20
2022-11-05T08:05:47.156Z,11.88
2022-11-05T08:10:49.128Z,12.52
2022-11-05T08:15:50.966Z,12.32
2022-11-05T08:20:52.760Z,12.07
2022-11-05T08:25:55.851Z,11.55
2022-11-05T08:30:58.015Z,10.60
2022-11-05T08:36:04.459Z,11.00
2022-11-05T08:41:06.516Z,10.63
2022-11-05T08:46:08.626Z,10.70
2022-11-05T08:51:10.420Z,10.68
2022-11-05T08:56:12.363Z,10.00
2022-11-05T09:01:14.189Z,9.70
2022-11-05T09:06:16.055Z,9.13
2022-11-05T09:11:18.333Z,8.63
2022-11-05T09:16:25.994Z,8.93
2022-11-05T09:21:27.827Z,8.48
2022-11-05T09:26:29.638Z,7.85
2022-11-05T09:31:31.458Z,8.20
2022-11-05T09:36:33.267Z,8.63
2022-11-05T09:41:40.104Z,8.00
2022-11-05T09:46:56.532Z,8.38
2022-11-05T09:51:59.502Z,7.95
2022-11-05T09:57:03.265Z,8.60
2022-11-05T10:02:48.228Z,7.68
2022-11-05T10:08:10.730Z,7.00
2022-11-05T10:13:32.129Z,6.97
2022-11-05T10:18:39.300Z,6.72
2022-11-05T10:23:41.504Z,6.80
2022-11-05T10:28:43.308Z,6.07
2022-11-05T10:33:49.350Z,6.55
2022-11-05T10:38:52.039Z,5.38
2022-11-05T10:44:22.812Z,5.35
2022-11-05T10:50:02.876Z,5.07
2022-11-05T10:55:16.257Z,4.95
2022-11-05T11:00:20.638Z,4.03
2022-11-05T11:05:33.139Z,5.10
2022-11-05T11:10:42.394Z,3.35
2022-11-05T11:15:44.561Z,3.90
2022-11-05T11:20:46.759Z,3.22
2022-11-05T11:25:54.079Z,3.22
2022-11-05T11:31:14.897Z,3.20
2022-11-05T11:36:20.204Z,3.22
2022-11-05T11:41:29.953Z,2.13
2022-11-05T11:46:34.054Z,2.50
2022-11-05T11:51:49.527Z,2.80
2022-11-05T11:56:51.859Z,2.30
2022-11-05T12:01:56.394Z,2.75
2022-11-05T12:07:32.115Z,2.17
2022-11-05T12:12:46.707Z,2.75
2022-11-05T12:18:04.049Z,2.85
2022-11-05T12:23:26.775Z,3.33
2022-11-05T12:29:17.202Z,1.80
2022-11-05T12:34:44.577Z,1.90
2022-11-05T12:40:17.203Z,1.98
2022-11-05T12:45:29.267Z,2.13
2022-11-05T12:50:44.133Z,4.07
2022-11-05T12:55:49.777Z,1.73
2022-11-05T13:01:00.209Z,2.35
2022-11-05T13:06:07.778Z,2.22
2022-11-05T13:11:29.724Z,2.30
2022-11-05T13:16:38.590Z,1.60
2022-11-05T13:21:42.690Z,1.85
2022-11-05T13:26:54.434Z,2.95
2022-11-05T13:32:09.547Z,1.45
2022-11-05T13:37:31.850Z,1.95
2022-11-05T13:42:39.758Z,1.42
2022-11-05T13:47:56.171Z,1.63
2022-11-05T13:53:27.565Z,1.73
2022-11-05T13:58:54.935Z,1.60
2022-11-05T14:03:57.159Z,2.20
2022-11-05T14:09:02.523Z,1.77
2022-11-05T14:14:17.367Z,1.52
2022-11-05T14:19:19.136Z,1.02
2022-11-05T14:24:24.012Z,1.50
2022-11-05T14:29:36.295Z,1.17
2022-11-05T14:35:24.599Z,1.23
2022-11-05T14:40:31.812Z,1.35
2022-11-05T14:45:39.627Z,1.50
2022-11-05T14:50:42.826Z,1.48
2022-11-05T14:55:45.943Z,1.45
2022-11-05T15:00:48.287Z,1.75
2022-11-05T15:06:03.705Z,1.95
2022-11-05T15:11:29.588Z,2.42
2022-11-05T15:16:49.289Z,1.90
2022-11-05T15:21:53.450Z,3.15
2022-11-05T15:27:37.087Z,2.72
2022-11-05T15:32:39.333Z,3.80
2022-11-05T15:37:53.407Z,3.67
2022-11-05T15:43:17.389Z,3.20
2022-11-05T15:48:20.140Z,2.97
2022-11-05T15:54:08.848Z,2.10
2022-11-05T15:59:01.918Z,2.70
2022-11-05T16:04:16.474Z,3.03
2022-11-05T16:09:26.280Z,2.85
2022-11-05T16:14:35.219Z,2.60
2022-11-05T16:19:42.335Z,3.00
2022-11-05T16:24:45.142Z,2.97
2022-11-05T16:29:55.735Z,2.60
2022-11-05T16:35:00.580Z,7.20
2022-11-05T16:40:03.759Z,4.13
2022-11-05T16:45:06.952Z,3.72
2022-11-05T16:50:23.995Z,3.60
2022-11-05T16:55:26.098Z,3.95
2022-11-05T17:00:28.322Z,3.95
2022-11-05T17:05:31.786Z,4.88
2022-11-05T17:10:33.758Z,4.65
2022-11-05T17:15:35.857Z,4.43
2022-11-05T17:20:46.426Z,4.47
2022-11-05T17:25:51.149Z,8.93
2022-11-05T17:30:53.894Z,14.30
2022-11-05T17:35:56.302Z,12.07
2022-11-05T17:40:58.130Z,6.80
2022-11-05T17:46:04.337Z,7.22
2022-11-05T17:51:11.741Z,7.63
2022-11-05T17:56:27.195Z,6.40
2022-11-05T18:06:39.863Z,7.35
2022-11-05T18:11:42.619Z,7.75
2022-11-05T18:16:44.505Z,7.05
2022-11-05T18:21:46.376Z,7.80
2022-11-05T18:26:48.688Z,7.95
2022-11-05T18:31:50.525Z,6.93
2022-11-05T18:36:56.390Z,7.18
2022-11-05T18:41:58.610Z,6.10
2022-11-05T18:47:00.682Z,5.40
2022-11-05T18:52:03.071Z,4.85
2022-11-05T18:57:04.945Z,4.75
2022-11-05T19:02:08.791Z,3.63
2022-11-05T19:07:12.037Z,3.45
2022-11-05T19:12:14.008Z,2.95
2022-11-05T19:17:15.928Z,4.70
2022-11-05T19:22:18.620Z,4.25
2022-11-05T19:27:20.547Z,3.65
2022-11-05T19:32:22.451Z,4.18
2022-11-05T19:37:24.408Z,3.60
2022-11-05T19:42:26.819Z,3.67
2022-11-05T19:47:29.641Z,4.03
2022-11-05T19:52:31.601Z,3.85
2022-11-05T19:57:36.100Z,3.63
2022-11-05T20:02:38.228Z,3.92
2022-11-05T20:07:40.796Z,4.47
2022-11-05T20:12:42.708Z,3.75
2022-11-05T20:17:48.760Z,3.40
2022-11-05T20:22:53.348Z,3.20
2022-11-05T20:27:57.387Z,3.25
2022-11-05T20:32:59.166Z,3.17
2022-11-05T20:38:00.954Z,2.70
2022-11-05T20:43:02.778Z,3.13
2022-11-05T20:48:04.975Z,5.55
2022-11-05T20:53:06.751Z,3.90
2022-11-05T20:58:09.263Z,3.10
2022-11-05T21:03:11.406Z,3.13
2022-11-05T21:08:13.933Z,2.75
2022-11-05T21:13:16.114Z,3.03
2022-11-05T21:18:21.624Z,2.20
2022-11-05T21:23:23.655Z,2.38
2022-11-05T21:28:25.531Z,2.80
2022-11-05T21:33:27.795Z,2.40
2022-11-05T21:38:29.569Z,4.15
2022-11-05T21:43:31.660Z,3.75
2022-11-05T21:48:34.073Z,2.72
2022-11-05T21:53:54.588Z,2.80
2022-11-05T21:59:15.146Z,3.05
2022-11-05T22:09:18.835Z,2.97
2022-11-05T22:14:20.682Z,2.40
2022-11-05T22:19:22.884Z,2.50
2022-11-05T22:24:25.083Z,2.70
2022-11-05T22:29:27.470Z,2.30
2022-11-05T22:34:29.278Z,2.38
2022-11-05T22:39:31.481Z,3.10
2022-11-05T22:44:33.548Z,6.13
2022-11-05T22:49:35.472Z,6.00
2022-11-05T22:54:39.471Z,7.72
2022-11-05T22:59:41.446Z,6.65
2022-11-05T23:04:43.245Z,5.88
2022-11-05T23:10:03.816Z,2.70
2022-11-05T23:20:33.247Z,5.28
2022-11-05T23:25:35.468Z,2.20
2022-11-05T23:31:01.419Z,2.35
2022-11-05T23:36:21.862Z,2.35
2022-11-05T23:47:39.147Z,2.08
2022-11-05T23:52:40.972Z,2.10
2022-11-05T23:57:42.826Z,2.17
